Time;durP1;ratioP1;P1;durP2;ratioP2;P2;SDS_P1;SDS_P2;PMS_P1;PMS_P2;Temp;Humidity;BMP_temperature;BMP_pressure;BME280_temperature;BME280_humidity;BME280_pressure;Samples;Min_cycle;Max_cycle;Signal;HPM_P1;HPM_P2
2023/05/24 00:00:36;;;;;;;10.45;8.23;;;;;;;;;;4989255;28;20030;-77
2023/05/24 00:03:03;;;;;;;10.90;8.43;;;;;;;;;;4995543;28;20037;-76
2023/05/24 00:05:29;;;;;;;12.98;9.10;;;;;;;;;;4992434;28;20042;-77
2023/05/24 00:07:55;;;;;;;12.45;8.43;;;;;;;;;;4979221;28;20114;-77
2023/05/24 00:10:20;;;;;;;12.07;8.77;;;;;;;;;;4980204;28;20098;-77
2023/05/24 00:12:45;;;;;;;12.10;8.80;;;;;;;;;;4995152;28;20072;-77
2023/05/24 00:15:11;;;;;;;11.30;8.65;;;;;;;;;;4994498;28;20058;-76
2023/05/24 00:17:39;;;;;;;13.73;8.95;;;;;;;;;;4988945;28;20508;-76
2023/05/24 00:20:09;;;;;;;12.20;9.80;;;;;;;;;;4992001;28;20066;-77
2023/05/24 00:22:35;;;;;;;12.98;9.35;;;;;;;;;;4989807;28;20058;-77
2023/05/24 00:25:01;;;;;;;11.60;9.38;;;;;;;;;;4994401;28;20611;-77
2023/05/24 00:27:26;;;;;;;12.82;8.88;;;;;;;;;;4993317;28;20062;-77
2023/05/24 00:29:51;;;;;;;11.65;8.98;;;;;;;;;;4995401;28;20029;-77
2023/05/24 00:32:16;;;;;;;12.43;9.35;;;;;;;;;;4995830;28;20489;-77
2023/05/24 00:34:42;;;;;;;12.43;9.48;;;;;;;;;;4995052;28;20039;-77
2023/05/24 00:37:08;;;;;;;11.18;8.95;;;;;;;;;;4995266;28;20081;-77
2023/05/24 00:39:33;;;;;;;10.48;8.23;;;;;;;;;;4991880;28;20045;-77
2023/05/24 00:41:58;;;;;;;9.23;7.40;;;;;;;;;;4993733;28;20026;-77
2023/05/24 00:44:24;;;;;;;11.65;7.90;;;;;;;;;;4991923;28;20038;-77
2023/05/24 00:46:49;;;;;;;9.75;7.60;;;;;;;;;;4986278;28;20045;-76
2023/05/24 00:49:14;;;;;;;8.82;7.65;;;;;;;;;;4988526;28;20084;-77
2023/05/24 00:51:40;;;;;;;12.55;7.20;;;;;;;;;;4991850;28;20079;-77
2023/05/24 00:54:05;;;;;;;10.10;7.57;;;;;;;;;;4993759;28;20041;-77
2023/05/24 00:56:31;;;;;;;11.52;8.60;;;;;;;;;;4993830;28;20030;-77
2023/05/24 00:58:57;;;;;;;9.05;7.30;;;;;;;;;;4992323;28;20088;-77
2023/05/24 01:01:25;;;;;;;11.07;8.23;;;;;;;;;;4990664;28;20073;-77
2023/05/24 01:03:54;;;;;;;10.75;8.18;;;;;;;;;;4992861;28;20421;-77
2023/05/24 01:06:19;;;;;;;9.82;7.85;;;;;;;;;;4979814;28;20050;-77
2023/05/24 01:09:01;;;;;;;11.35;7.88;;;;;;;;;;4995375;28;20069;-77
2023/05/24 01:11:38;;;;;;;10.60;7.80;;;;;;;;;;4992977;28;20026;-77
2023/05/24 01:14:25;;;;;;;11.38;7.85;;;;;;;;;;4992980;28;20062;-77
2023/05/24 01:17:18;;;;;;;10.88;7.50;;;;;;;;;;5001075;28;20501;-77
2023/05/24 01:19:47;;;;;;;12.52;7.50;;;;;;;;;;5008341;28;20046;-77
2023/05/24 01:22:35;;;;;;;12.27;7.50;;;;;;;;;;4992886;28;20062;-77
2023/05/24 01:25:28;;;;;;;8.82;7.63;;;;;;;;;;4988508;28;20049;-77
2023/05/24 01:27:54;;;;;;;9.27;7.53;;;;;;;;;;4992958;28;20030;-77
2023/05/24 01:30:20;;;;;;;9.10;7.10;;;;;;;;;;4993902;28;20030;-77
2023/05/24 01:32:45;;;;;;;9.25;7.47;;;;;;;;;;4990588;28;20018;-76
2023/05/24 01:35:10;;;;;;;10.00;7.97;;;;;;;;;;4987313;28;20497;-77
2023/05/24 01:37:35;;;;;;;9.73;7.38;;;;;;;;;;4990970;28;20042;-77
2023/05/24 01:40:01;;;;;;;9.48;7.70;;;;;;;;;;4993193;28;20077;-77
2023/05/24 01:42:58;;;;;;;8.77;7.38;;;;;;;;;;4991920;28;20096;-77
2023/05/24 01:45:43;;;;;;;13.15;7.60;;;;;;;;;;4986848;28;20042;-77
2023/05/24 01:48:26;;;;;;;9.57;7.20;;;;;;;;;;4985674;28;20038;-77
2023/05/24 01:50:56;;;;;;;10.23;6.70;;;;;;;;;;4981358;28;20023;-77
2023/05/24 01:53:25;;;;;;;9.40;7.38;;;;;;;;;;4983174;28;20034;-77
2023/05/24 01:55:55;;;;;;;9.50;7.15;;;;;;;;;;4991180;28;20509;-76
2023/05/24 01:58:22;;;;;;;7.97;6.50;;;;;;;;;;4992586;28;20145;-76
2023/05/24 02:00:48;;;;;;;8.95;6.88;;;;;;;;;;4991317;28;20042;-76
2023/05/24 02:03:14;;;;;;;10.23;7.00;;;;;;;;;;4992715;28;20162;-77
2023/05/24 02:05:40;;;;;;;13.25;7.70;;;;;;;;;;4993019;28;20030;-77
2023/05/24 02:08:05;;;;;;;11.95;7.22;;;;;;;;;;4993169;28;20397;-76
2023/05/24 02:10:30;;;;;;;13.27;7.70;;;;;;;;;;4989630;28;20048;-77
2023/05/24 02:12:58;;;;;;;8.80;7.00;;;;;;;;;;4984617;28;20038;-77
2023/05/24 02:15:23;;;;;;;9.25;7.25;;;;;;;;;;4990716;28;20052;-76
2023/05/24 02:17:49;;;;;;;9.95;7.90;;;;;;;;;;4991743;28;20034;-77
2023/05/24 02:20:16;;;;;;;11.52;8.60;;;;;;;;;;4990123;28;20038;-78
2023/05/24 02:22:41;;;;;;;11.68;8.48;;;;;;;;;;4991323;28;20070;-77
2023/05/24 02:25:07;;;;;;;14.38;8.75;;;;;;;;;;4991635;28;20062;-75
2023/05/24 02:27:32;;;;;;;10.40;7.82;;;;;;;;;;4977493;28;20374;-76
2023/05/24 02:29:57;;;;;;;11.40;8.45;;;;;;;;;;4987805;28;20025;-76
2023/05/24 02:32:23;;;;;;;10.45;7.82;;;;;;;;;;4983465;28;20069;-75
2023/05/24 02:34:48;;;;;;;11.80;8.88;;;;;;;;;;4990519;28;20034;-76
2023/05/24 02:37:13;;;;;;;11.93;8.90;;;;;;;;;;4990993;28;20042;-77
2023/05/24 02:39:40;;;;;;;11.27;8.55;;;;;;;;;;4989692;28;20093;-76
2023/05/24 02:42:07;;;;;;;10.88;8.38;;;;;;;;;;4983758;28;20030;-76
2023/05/24 02:44:33;;;;;;;10.15;7.95;;;;;;;;;;4988636;28;20034;-76
2023/05/24 02:46:58;;;;;;;9.23;7.75;;;;;;;;;;4989765;28;20175;-76
2023/05/24 02:49:23;;;;;;;10.40;7.90;;;;;;;;;;4990650;28;20085;-76
2023/05/24 02:51:50;;;;;;;9.10;7.60;;;;;;;;;;4984817;28;20038;-76
2023/05/24 02:54:16;;;;;;;10.25;7.43;;;;;;;;;;4986406;28;20033;-76
2023/05/24 02:56:41;;;;;;;9.45;7.40;;;;;;;;;;4986707;28;20053;-77
2023/05/24 02:59:07;;;;;;;11.57;7.80;;;;;;;;;;4989815;28;20034;-77
2023/05/24 03:01:33;;;;;;;10.32;7.85;;;;;;;;;;4988045;28;20045;-77
2023/05/24 03:03:58;;;;;;;10.48;8.55;;;;;;;;;;4987629;28;20041;-76
2023/05/24 03:06:24;;;;;;;11.18;8.23;;;;;;;;;;4986401;28;20319;-77
2023/05/24 03:08:49;;;;;;;13.43;8.38;;;;;;;;;;4991256;28;20445;-76
2023/05/24 03:11:15;;;;;;;11.50;8.60;;;;;;;;;;4985572;28;20027;-76
2023/05/24 03:13:41;;;;;;;13.70;8.85;;;;;;;;;;4990618;28;20079;-77
2023/05/24 03:16:06;;;;;;;13.00;8.90;;;;;;;;;;4990080;28;20031;-76
2023/05/24 03:18:31;;;;;;;11.57;8.95;;;;;;;;;;4986419;28;20038;-76
2023/05/24 03:20:57;;;;;;;9.23;7.70;;;;;;;;;;4984763;28;20041;-77
2023/05/24 03:23:22;;;;;;;11.10;8.40;;;;;;;;;;4982930;28;20499;-77
2023/05/24 03:25:47;;;;;;;11.95;7.93;;;;;;;;;;4987607;28;20058;-76
2023/05/24 03:28:13;;;;;;;10.68;8.10;;;;;;;;;;4985461;28;20034;-76
2023/05/24 03:30:39;;;;;;;13.13;7.90;;;;;;;;;;4989746;28;20047;-77
2023/05/24 03:33:04;;;;;;;11.90;7.97;;;;;;;;;;4990227;28;20051;-76
2023/05/24 03:35:30;;;;;;;13.38;8.30;;;;;;;;;;4989781;28;20417;-76
2023/05/24 03:37:55;;;;;;;9.85;7.60;;;;;;;;;;4986485;28;20038;-76
2023/05/24 03:40:20;;;;;;;12.95;7.63;;;;;;;;;;4990625;28;20501;-76
2023/05/24 03:42:46;;;;;;;11.07;7.90;;;;;;;;;;4986958;28;20537;-76
2023/05/24 03:45:11;;;;;;;10.30;8.02;;;;;;;;;;4982511;28;20093;-77
2023/05/24 03:47:36;;;;;;;8.20;6.82;;;;;;;;;;4984174;28;20496;-77
2023/05/24 03:50:02;;;;;;;9.32;7.55;;;;;;;;;;4987067;28;20049;-76
2023/05/24 03:52:27;;;;;;;12.30;7.47;;;;;;;;;;4989128;28;20042;-76
2023/05/24 03:54:52;;;;;;;10.27;7.50;;;;;;;;;;4984044;28;20035;-76
2023/05/24 03:57:17;;;;;;;13.40;7.80;;;;;;;;;;4984727;28;20092;-76
2023/05/24 03:59:43;;;;;;;12.60;7.55;;;;;;;;;;4990345;28;20113;-76
2023/05/24 04:02:08;;;;;;;10.30;7.95;;;;;;;;;;4989430;28;20042;-76
2023/05/24 04:04:33;;;;;;;11.55;7.80;;;;;;;;;;4984621;28;20045;-76
2023/05/24 04:06:59;;;;;;;10.10;7.80;;;;;;;;;;4989690;28;20398;-76
2023/05/24 04:09:24;;;;;;;10.65;7.38;;;;;;;;;;5004686;28;20143;-76
2023/05/24 04:11:50;;;;;;;11.63;8.23;;;;;;;;;;4989761;28;20018;-76
2023/05/24 04:14:15;;;;;;;11.10;7.80;;;;;;;;;;4990349;28;20055;-76
2023/05/24 04:16:40;;;;;;;10.15;7.35;;;;;;;;;;4988153;28;20677;-76
2023/05/24 04:19:06;;;;;;;9.27;6.60;;;;;;;;;;4981950;28;20408;-76
2023/05/24 04:21:33;;;;;;;9.25;7.50;;;;;;;;;;4988994;28;20042;-76
2023/05/24 04:24:00;;;;;;;11.30;8.00;;;;;;;;;;4990990;28;20105;-76
2023/05/24 04:26:26;;;;;;;12.02;7.43;;;;;;;;;;4992711;28;20035;-76
2023/05/24 04:28:51;;;;;;;9.73;7.45;;;;;;;;;;4991127;28;20405;-76
2023/05/24 04:31:16;;;;;;;10.95;7.72;;;;;;;;;;4991944;28;20034;-76
2023/05/24 04:33:42;;;;;;;11.63;8.30;;;;;;;;;;4989639;28;20058;-76
2023/05/24 04:36:10;;;;;;;13.68;8.15;;;;;;;;;;4986696;28;20473;-76
2023/05/24 04:38:37;;;;;;;11.65;8.05;;;;;;;;;;4992346;28;20072;-76
2023/05/24 04:41:03;;;;;;;10.05;7.90;;;;;;;;;;4991772;28;21062;-76
2023/05/24 04:43:28;;;;;;;11.10;7.93;;;;;;;;;;4987358;28;20062;-77
2023/05/24 04:45:54;;;;;;;14.52;8.43;;;;;;;;;;4989454;28;20038;-76
2023/05/24 04:48:23;;;;;;;11.30;7.90;;;;;;;;;;4986367;28;20068;-76
2023/05/24 04:50:52;;;;;;;11.50;8.63;;;;;;;;;;4987964;28;20058;-76
2023/05/24 04:53:21;;;;;;;12.15;8.90;;;;;;;;;;4992103;28;20525;-76
2023/05/24 04:55:48;;;;;;;12.40;8.68;;;;;;;;;;4992796;28;20065;-76
2023/05/24 04:58:13;;;;;;;14.45;9.73;;;;;;;;;;4980479;28;20501;-76
2023/05/24 05:00:39;;;;;;;10.32;8.10;;;;;;;;;;4991311;28;20037;-76
2023/05/24 05:03:04;;;;;;;10.43;8.15;;;;;;;;;;4992746;28;20453;-76
2023/05/24 05:05:30;;;;;;;14.35;9.32;;;;;;;;;;4992299;28;20034;-76
2023/05/24 05:07:55;;;;;;;11.35;8.48;;;;;;;;;;4990132;28;20529;-76
2023/05/24 05:10:21;;;;;;;15.82;8.75;;;;;;;;;;4992827;28;20564;-76
2023/05/24 05:12:46;;;;;;;12.70;9.18;;;;;;;;;;4986636;28;20038;-76
2023/05/24 05:15:12;;;;;;;13.68;9.93;;;;;;;;;;4990169;28;20065;-76
2023/05/24 05:17:37;;;;;;;12.93;9.18;;;;;;;;;;4988712;28;20026;-76
2023/05/24 05:20:03;;;;;;;10.85;7.95;;;;;;;;;;4985327;28;20035;-76
2023/05/24 05:22:28;;;;;;;13.73;9.48;;;;;;;;;;4986334;28;20059;-76
2023/05/24 05:24:55;;;;;;;11.15;8.75;;;;;;;;;;4988231;28;20513;-76
2023/05/24 05:27:20;;;;;;;14.15;10.32;;;;;;;;;;4988534;28;20041;-77
2023/05/24 05:29:45;;;;;;;14.05;10.00;;;;;;;;;;4991412;28;20030;-76
2023/05/24 05:32:11;;;;;;;15.45;10.82;;;;;;;;;;4990323;28;20106;-76
2023/05/24 05:34:36;;;;;;;22.25;12.50;;;;;;;;;;4990172;28;20034;-76
2023/05/24 05:37:01;;;;;;;19.83;12.13;;;;;;;;;;4989861;28;20037;-76
2023/05/24 05:39:27;;;;;;;18.33;11.90;;;;;;;;;;4990282;28;20030;-77
2023/05/24 05:41:52;;;;;;;17.75;11.27;;;;;;;;;;4988069;28;20058;-77
2023/05/24 05:44:17;;;;;;;18.58;10.63;;;;;;;;;;4998649;28;20034;-75
2023/05/24 05:46:45;;;;;;;12.88;9.63;;;;;;;;;;5012292;28;20507;-76
2023/05/24 05:49:11;;;;;;;17.02;10.20;;;;;;;;;;4999490;28;20077;-76
2023/05/24 05:51:37;;;;;;;14.98;9.63;;;;;;;;;;4991155;28;20077;-76
2023/05/24 05:54:03;;;;;;;11.98;8.48;;;;;;;;;;4998189;28;20085;-76
2023/05/24 05:56:28;;;;;;;19.88;8.93;;;;;;;;;;4997891;28;20026;-76
2023/05/24 05:58:54;;;;;;;11.05;7.70;;;;;;;;;;4990281;28;20039;-76
2023/05/24 06:01:19;;;;;;;10.20;7.45;;;;;;;;;;4992371;28;20050;-77
2023/05/24 06:03:45;;;;;;;11.88;7.07;;;;;;;;;;4993762;28;20165;-76
2023/05/24 06:06:10;;;;;;;11.43;7.60;;;;;;;;;;4991442;28;20168;-76
2023/05/24 06:08:35;;;;;;;11.55;8.07;;;;;;;;;;4984553;28;20034;-76
2023/05/24 06:11:01;;;;;;;10.07;7.30;;;;;;;;;;4990862;28;20034;-76
2023/05/24 06:13:27;;;;;;;11.40;7.60;;;;;;;;;;4992316;28;20116;-76
2023/05/24 06:15:55;;;;;;;10.73;7.53;;;;;;;;;;4990755;28;20405;-76
2023/05/24 06:18:20;;;;;;;12.10;7.80;;;;;;;;;;5004082;28;20057;-76
2023/05/24 06:20:46;;;;;;;12.57;8.10;;;;;;;;;;4989915;28;20493;-76
2023/05/24 06:23:11;;;;;;;12.70;8.27;;;;;;;;;;4994559;28;20396;-76
2023/05/24 06:25:37;;;;;;;14.90;8.60;;;;;;;;;;4994412;28;20488;-76
2023/05/24 06:28:03;;;;;;;11.20;7.65;;;;;;;;;;4995184;28;20456;-76
2023/05/24 06:30:28;;;;;;;12.07;8.35;;;;;;;;;;4992713;28;20050;-76
2023/05/24 06:32:53;;;;;;;10.93;7.55;;;;;;;;;;4994897;28;21907;-76
2023/05/24 06:35:19;;;;;;;10.50;7.45;;;;;;;;;;5000269;28;20034;-76
2023/05/24 06:37:44;;;;;;;13.30;7.50;;;;;;;;;;4988481;28;20577;-76
2023/05/24 06:40:10;;;;;;;15.68;7.50;;;;;;;;;;4998209;28;20720;-76
2023/05/24 06:42:36;;;;;;;10.27;7.32;;;;;;;;;;4992779;28;20042;-76
2023/05/24 06:45:02;;;;;;;13.32;7.50;;;;;;;;;;4991145;28;20029;-76
2023/05/24 06:47:27;;;;;;;12.02;7.00;;;;;;;;;;4988464;28;20092;-76
2023/05/24 06:49:53;;;;;;;11.70;7.18;;;;;;;;;;4988664;28;20026;-76
2023/05/24 06:52:18;;;;;;;8.88;7.07;;;;;;;;;;4989120;28;20034;-76
2023/05/24 06:54:43;;;;;;;10.18;7.10;;;;;;;;;;4990966;28;20599;-77
2023/05/24 06:57:09;;;;;;;10.90;7.05;;;;;;;;;;4991416;28;20018;-76
2023/05/24 06:59:34;;;;;;;9.15;7.05;;;;;;;;;;4991638;28;20018;-76
2023/05/24 07:02:00;;;;;;;10.93;7.65;;;;;;;;;;5006129;28;20114;-76
2023/05/24 07:04:27;;;;;;;11.25;7.32;;;;;;;;;;4991469;28;20049;-77
2023/05/24 07:06:52;;;;;;;11.38;8.57;;;;;;;;;;5004621;28;20038;-77
2023/05/24 07:09:18;;;;;;;10.45;7.15;;;;;;;;;;4992589;28;20029;-76
2023/05/24 07:11:44;;;;;;;10.13;7.78;;;;;;;;;;4992601;28;20080;-77
2023/05/24 07:14:10;;;;;;;13.13;8.32;;;;;;;;;;4993001;28;20505;-77
2023/05/24 07:16:35;;;;;;;10.90;7.80;;;;;;;;;;4990780;28;20045;-77
2023/05/24 07:19:01;;;;;;;11.40;7.65;;;;;;;;;;4986822;28;20567;-77
2023/05/24 07:21:30;;;;;;;9.13;7.30;;;;;;;;;;4986149;28;20046;-76
2023/05/24 07:23:56;;;;;;;12.05;7.45;;;;;;;;;;4989941;28;20113;-78
2023/05/24 07:26:22;;;;;;;10.93;7.55;;;;;;;;;;4987386;28;20054;-77
2023/05/24 07:28:48;;;;;;;11.15;7.63;;;;;;;;;;4992282;28;20121;-77
2023/05/24 07:31:13;;;;;;;14.38;7.43;;;;;;;;;;4993863;28;20574;-77
2023/05/24 07:33:40;;;;;;;7.22;6.03;;;;;;;;;;4984269;28;20039;-77
2023/05/24 07:36:05;;;;;;;9.52;7.07;;;;;;;;;;4985390;28;20027;-77
2023/05/24 07:38:31;;;;;;;9.75;6.70;;;;;;;;;;4988071;28;20029;-78
2023/05/24 07:41:02;;;;;;;9.45;7.20;;;;;;;;;;4988587;28;20035;-77
2023/05/24 07:43:28;;;;;;;10.00;7.22;;;;;;;;;;4986949;28;20097;-77
2023/05/24 07:45:53;;;;;;;10.50;7.65;;;;;;;;;;4990948;28;20504;-75
2023/05/24 07:48:22;;;;;;;9.70;7.35;;;;;;;;;;4990558;28;20030;-77
2023/05/24 07:50:49;;;;;;;11.93;7.22;;;;;;;;;;4992193;28;20165;-77
2023/05/24 07:53:15;;;;;;;9.93;7.57;;;;;;;;;;4989373;28;20496;-77
2023/05/24 07:55:40;;;;;;;13.23;7.35;;;;;;;;;;4986682;28;20039;-77
2023/05/24 07:58:06;;;;;;;16.45;7.88;;;;;;;;;;5010865;23;20046;-76
2023/05/24 08:00:32;;;;;;;13.02;7.13;;;;;;;;;;4983919;28;20051;-76
2023/05/24 08:02:58;;;;;;;11.30;7.55;;;;;;;;;;4976785;28;20080;-76
2023/05/24 08:05:24;;;;;;;12.32;8.23;;;;;;;;;;5008907;28;20085;-76
2023/05/24 08:07:50;;;;;;;9.73;6.68;;;;;;;;;;4993901;28;20042;-76
2023/05/24 08:10:15;;;;;;;9.63;6.97;;;;;;;;;;4967557;28;20036;-75
2023/05/24 08:12:41;;;;;;;11.38;7.15;;;;;;;;;;4962986;28;20035;-76
2023/05/24 08:15:07;;;;;;;8.45;6.05;;;;;;;;;;4975334;28;20026;-78
2023/05/24 08:17:32;;;;;;;13.15;6.85;;;;;;;;;;4968964;28;20408;-78
2023/05/24 08:19:58;;;;;;;9.27;6.82;;;;;;;;;;4969157;28;20036;-76
2023/05/24 08:22:23;;;;;;;9.38;6.32;;;;;;;;;;4974952;28;20050;-76
2023/05/24 08:24:48;;;;;;;10.23;6.05;;;;;;;;;;4958605;28;20046;-76
2023/05/24 08:27:14;;;;;;;9.05;5.90;;;;;;;;;;4974562;28;20031;-77
2023/05/24 08:29:39;;;;;;;7.60;5.18;;;;;;;;;;4959535;28;20102;-76
2023/05/24 08:32:08;;;;;;;6.30;4.63;;;;;;;;;;4973738;28;20030;-76
2023/05/24 08:34:35;;;;;;;7.65;6.05;;;;;;;;;;4974577;28;20097;-76
2023/05/24 08:37:01;;;;;;;8.35;5.90;;;;;;;;;;4963192;28;20039;-76
2023/05/24 08:39:26;;;;;;;14.07;6.85;;;;;;;;;;4962809;28;20071;-76
2023/05/24 08:41:51;;;;;;;9.43;6.72;;;;;;;;;;4964508;28;20370;-76
2023/05/24 08:44:17;;;;;;;12.40;6.68;;;;;;;;;;4969626;28;20031;-77
2023/05/24 08:46:43;;;;;;;13.15;8.20;;;;;;;;;;4962933;28;20042;-77
2023/05/24 08:49:11;;;;;;;13.40;7.35;;;;;;;;;;4962853;28;20030;-77
2023/05/24 08:51:38;;;;;;;16.02;7.57;;;;;;;;;;4962350;28;20077;-77
2023/05/24 08:54:04;;;;;;;20.98;9.32;;;;;;;;;;4973838;28;20034;-78
2023/05/24 08:56:29;;;;;;;13.52;8.63;;;;;;;;;;4975823;28;20030;-77
2023/05/24 08:58:55;;;;;;;10.88;7.63;;;;;;;;;;4966301;28;20095;-77
2023/05/24 09:01:22;;;;;;;12.40;8.10;;;;;;;;;;4969698;28;20027;-77
2023/05/24 09:03:49;;;;;;;16.25;8.27;;;;;;;;;;4963366;28;20035;-77
2023/05/24 09:06:16;;;;;;;11.68;7.65;;;;;;;;;;4970191;28;20030;-78
2023/05/24 09:08:43;;;;;;;15.15;8.85;;;;;;;;;;4956459;28;20031;-78
2023/05/24 09:11:09;;;;;;;29.95;9.75;;;;;;;;;;4991415;28;20027;-78
2023/05/24 09:13:35;;;;;;;19.15;9.07;;;;;;;;;;4976984;28;20043;-79
2023/05/24 09:16:01;;;;;;;14.77;9.55;;;;;;;;;;4964450;28;20498;-78
2023/05/24 09:18:26;;;;;;;16.60;9.75;;;;;;;;;;4975936;28;20144;-78
2023/05/24 09:20:52;;;;;;;17.98;9.88;;;;;;;;;;4974305;28;20117;-78
2023/05/24 09:23:17;;;;;;;20.10;9.07;;;;;;;;;;4967536;28;20113;-77
2023/05/24 09:25:44;;;;;;;14.43;9.43;;;;;;;;;;4974734;28;20523;-77
2023/05/24 09:28:13;;;;;;;18.30;9.38;;;;;;;;;;4973448;28;20055;-77
2023/05/24 09:30:39;;;;;;;18.23;11.70;;;;;;;;;;4974100;28;20521;-76
2023/05/24 09:33:07;;;;;;;20.60;10.25;;;;;;;;;;4973653;28;20027;-77
2023/05/24 09:35:32;;;;;;;20.83;10.20;;;;;;;;;;4964523;28;20121;-77
2023/05/24 09:38:00;;;;;;;26.13;11.30;;;;;;;;;;4968462;28;20070;-77
2023/05/24 09:40:27;;;;;;;23.83;10.88;;;;;;;;;;4967754;28;20035;-77
2023/05/24 09:43:08;;;;;;;17.98;11.25;;;;;;;;;;4972548;28;20038;-76
2023/05/24 09:45:47;;;;;;;23.00;10.90;;;;;;;;;;4961940;28;20043;-77
2023/05/24 09:48:15;;;;;;;14.13;9.07;;;;;;;;;;4965023;28;20539;-76
2023/05/24 09:50:40;;;;;;;18.52;10.77;;;;;;;;;;4974052;28;20030;-77
2023/05/24 09:53:07;;;;;;;19.20;10.40;;;;;;;;;;4966652;28;20484;-77
2023/05/24 09:55:36;;;;;;;25.63;11.93;;;;;;;;;;4972965;28;20039;-76
2023/05/24 09:58:11;;;;;;;17.65;10.18;;;;;;;;;;4972489;28;20046;-76
2023/05/24 10:00:40;;;;;;;13.70;9.88;;;;;;;;;;4971651;28;20081;-76
2023/05/24 10:03:07;;;;;;;18.92;10.68;;;;;;;;;;4972738;28;20485;-76
2023/05/24 10:05:34;;;;;;;17.88;10.35;;;;;;;;;;4967335;28;20561;-76
2023/05/24 10:08:00;;;;;;;15.80;9.27;;;;;;;;;;4961147;28;20065;-77
2023/05/24 10:10:30;;;;;;;17.50;10.50;;;;;;;;;;4968608;28;20039;-78
2023/05/24 10:12:56;;;;;;;16.08;9.07;;;;;;;;;;4972015;28;20065;-78
2023/05/24 10:15:21;;;;;;;17.30;9.85;;;;;;;;;;4979363;28;20050;-78
2023/05/24 10:17:47;;;;;;;13.68;8.80;;;;;;;;;;4969298;28;20026;-78
2023/05/24 10:20:12;;;;;;;18.70;9.20;;;;;;;;;;4989645;28;20169;-78
2023/05/24 10:22:51;;;;;;;16.55;8.48;;;;;;;;;;4966409;28;20098;-78
2023/05/24 10:25:24;;;;;;;16.63;8.48;;;;;;;;;;4966964;28;20031;-78
2023/05/24 10:27:52;;;;;;;12.82;9.07;;;;;;;;;;4974096;28;20045;-77
2023/05/24 10:30:31;;;;;;;14.05;7.68;;;;;;;;;;4980714;28;20473;-78
2023/05/24 10:32:58;;;;;;;14.18;7.20;;;;;;;;;;4974120;28;20023;-77
2023/05/24 10:35:24;;;;;;;9.80;7.97;;;;;;;;;;4964986;28;20043;-77
2023/05/24 10:37:49;;;;;;;12.82;7.47;;;;;;;;;;4956565;28;20043;-77
2023/05/24 10:40:16;;;;;;;11.35;7.38;;;;;;;;;;4964475;28;20031;-77
2023/05/24 10:42:43;;;;;;;11.80;7.82;;;;;;;;;;4972346;28;20117;-76
2023/05/24 10:45:34;;;;;;;14.68;8.77;;;;;;;;;;4962627;28;20038;-77
2023/05/24 10:48:22;;;;;;;14.40;8.35;;;;;;;;;;4970063;28;20026;-77
2023/05/24 10:50:48;;;;;;;13.57;8.18;;;;;;;;;;4957884;28;20067;-77
2023/05/24 10:53:14;;;;;;;14.38;8.38;;;;;;;;;;4954482;28;20480;-77
2023/05/24 10:56:05;;;;;;;15.23;8.60;;;;;;;;;;4962795;28;20097;-77
2023/05/24 10:59:01;;;;;;;16.27;8.88;;;;;;;;;;4964571;28;20118;-77
2023/05/24 11:01:30;;;;;;;14.50;9.02;;;;;;;;;;4959050;28;20043;-77
2023/05/24 11:04:15;;;;;;;17.33;9.07;;;;;;;;;;4969582;28;20042;-77
2023/05/24 11:07:10;;;;;;;15.38;8.55;;;;;;;;;;4966682;28;20089;-77
2023/05/24 11:09:36;;;;;;;;;;;;;;;;;;4965035;28;20623;-77
2023/05/24 11:12:07;;;;;;;20.88;9.88;;;;;;;;;;4963653;28;19914;-77
2023/05/24 11:14:36;;;;;;;19.33;10.02;;;;;;;;;;4971669;28;20074;-77
2023/05/24 11:17:01;;;;;;;21.42;9.48;;;;;;;;;;4970424;28;20035;-77
2023/05/24 11:19:33;;;;;;;19.00;10.20;;;;;;;;;;4980324;28;20174;-77
2023/05/24 11:22:00;;;;;;;15.30;9.05;;;;;;;;;;4971702;28;20039;-77
2023/05/24 11:24:26;;;;;;;14.00;9.13;;;;;;;;;;4960754;28;20126;-77
2023/05/24 11:26:51;;;;;;;12.65;9.13;;;;;;;;;;4961803;28;20030;-77
2023/05/24 11:29:20;;;;;;;17.48;8.93;;;;;;;;;;4971564;28;20038;-77
2023/05/24 11:31:54;;;;;;;21.70;10.05;;;;;;;;;;4965458;28;20494;-77
2023/05/24 11:34:20;;;;;;;16.35;8.68;;;;;;;;;;4967665;28;20042;-78
2023/05/24 11:36:46;;;;;;;20.15;10.18;;;;;;;;;;4961851;28;20035;-78
2023/05/24 11:39:13;;;;;;;21.67;8.90;;;;;;;;;;4968368;28;20097;-78
2023/05/24 11:41:39;;;;;;;21.52;8.48;;;;;;;;;;4977634;28;20050;-78
2023/05/24 11:44:06;;;;;;;16.10;8.13;;;;;;;;;;4966267;28;20039;-78
2023/05/24 11:46:31;;;;;;;11.52;7.55;;;;;;;;;;4970676;28;20497;-78
2023/05/24 11:48:57;;;;;;;15.30;6.93;;;;;;;;;;4967941;28;20037;-77
2023/05/24 11:51:28;;;;;;;13.05;7.57;;;;;;;;;;4975447;28;20058;-78
2023/05/24 11:53:54;;;;;;;18.48;8.77;;;;;;;;;;4976313;28;20063;-78
2023/05/24 11:56:20;;;;;;;20.05;8.38;;;;;;;;;;4964272;28;20118;-78
2023/05/24 11:58:49;;;;;;;16.30;8.35;;;;;;;;;;4986257;28;20466;-78
2023/05/24 12:01:26;;;;;;;16.10;7.93;;;;;;;;;;4971370;28;20035;-78
2023/05/24 12:03:54;;;;;;;15.15;7.75;;;;;;;;;;4956472;28;20401;-77
2023/05/24 12:06:20;;;;;;;18.27;7.28;;;;;;;;;;4982352;28;20027;-78
2023/05/24 12:08:47;;;;;;;16.15;7.25;;;;;;;;;;4975421;28;20030;-77
2023/05/24 12:11:13;;;;;;;17.92;7.32;;;;;;;;;;4972042;28;20035;-77
2023/05/24 12:13:39;;;;;;;16.08;6.38;;;;;;;;;;4968982;28;20712;-77
2023/05/24 12:16:05;;;;;;;12.93;6.68;;;;;;;;;;4976988;28;20034;-77
2023/05/24 12:18:30;;;;;;;13.43;6.88;;;;;;;;;;4961730;28;20039;-77
2023/05/24 12:20:56;;;;;;;12.48;6.32;;;;;;;;;;4977330;28;20081;-78
2023/05/24 12:23:31;;;;;;;9.98;6.60;;;;;;;;;;4970106;28;20042;-77
2023/05/24 12:25:58;;;;;;;13.90;7.35;;;;;;;;;;4977606;28;20038;-78
2023/05/24 12:28:24;;;;;;;13.57;7.35;;;;;;;;;;4970582;28;20031;-77
2023/05/24 12:30:49;;;;;;;16.13;7.07;;;;;;;;;;4971989;28;20102;-78
2023/05/24 12:33:17;;;;;;;12.88;6.82;;;;;;;;;;4966914;28;20019;-78
2023/05/24 12:35:42;;;;;;;13.18;6.20;;;;;;;;;;4968248;28;20332;-77
2023/05/24 12:38:09;;;;;;;17.10;7.78;;;;;;;;;;4965762;28;20039;-77
2023/05/24 12:40:34;;;;;;;19.55;7.38;;;;;;;;;;4975947;28;20124;-78
2023/05/24 12:43:02;;;;;;;15.68;6.50;;;;;;;;;;4965112;28;20176;-78
2023/05/24 12:45:28;;;;;;;15.13;7.00;;;;;;;;;;4965681;28;20035;-77
2023/05/24 12:47:54;;;;;;;16.50;7.80;;;;;;;;;;4971919;28;20033;-77
2023/05/24 12:50:21;;;;;;;13.70;7.20;;;;;;;;;;4965881;28;20155;-78
2023/05/24 12:52:48;;;;;;;18.33;7.10;;;;;;;;;;4959855;28;20477;-78
2023/05/24 12:55:14;;;;;;;12.93;6.82;;;;;;;;;;4964901;28;20047;-78
2023/05/24 12:57:41;;;;;;;16.77;6.65;;;;;;;;;;4973640;28;20033;-77
2023/05/24 13:00:07;;;;;;;22.33;7.78;;;;;;;;;;4972480;28;20038;-77
2023/05/24 13:02:33;;;;;;;15.38;7.35;;;;;;;;;;4967563;28;20031;-78
2023/05/24 13:04:58;;;;;;;13.43;6.50;;;;;;;;;;4965956;28;20042;-78
2023/05/24 13:07:23;;;;;;;11.48;6.80;;;;;;;;;;4980747;28;20113;-78
2023/05/24 13:09:48;;;;;;;18.55;7.05;;;;;;;;;;4965922;28;20044;-77
2023/05/24 13:12:14;;;;;;;19.00;7.07;;;;;;;;;;4957147;28;20031;-78
2023/05/24 13:14:39;;;;;;;12.35;6.38;;;;;;;;;;4961023;28;20348;-77
2023/05/24 13:17:05;;;;;;;15.65;6.18;;;;;;;;;;4967926;28;20039;-78
2023/05/24 13:19:30;;;;;;;9.95;6.05;;;;;;;;;;4973505;28;20051;-77
2023/05/24 13:21:56;;;;;;;17.25;5.60;;;;;;;;;;4956882;28;20570;-77
2023/05/24 13:24:22;;;;;;;15.00;7.18;;;;;;;;;;4965512;28;20046;-77
2023/05/24 13:26:47;;;;;;;14.85;6.50;;;;;;;;;;4967572;28;20029;-77
2023/05/24 13:29:13;;;;;;;13.38;6.47;;;;;;;;;;4961858;28;20134;-77
2023/05/24 13:31:39;;;;;;;14.25;7.50;;;;;;;;;;4952967;28;20471;-77
2023/05/24 13:34:05;;;;;;;13.65;6.63;;;;;;;;;;4970289;28;20038;-77
2023/05/24 13:36:30;;;;;;;14.77;7.60;;;;;;;;;;4967537;28;20035;-77
2023/05/24 13:38:57;;;;;;;10.82;6.45;;;;;;;;;;4973655;28;20019;-77
2023/05/24 13:41:23;;;;;;;11.63;6.47;;;;;;;;;;4954264;28;20038;-78
2023/05/24 13:43:51;;;;;;;16.30;7.07;;;;;;;;;;4953970;28;20035;-77
2023/05/24 13:46:17;;;;;;;13.40;6.40;;;;;;;;;;4961719;28;20119;-77
2023/05/24 13:48:42;;;;;;;14.35;6.28;;;;;;;;;;4967269;28;20510;-77
2023/05/24 13:51:07;;;;;;;14.75;6.70;;;;;;;;;;4987605;28;20023;-77
2023/05/24 13:53:33;;;;;;;16.48;6.95;;;;;;;;;;4973655;28;20413;-77
2023/05/24 13:55:58;;;;;;;14.32;6.57;;;;;;;;;;4964168;28;20031;-77
2023/05/24 13:58:23;;;;;;;10.35;6.53;;;;;;;;;;4986840;28;20063;-77
2023/05/24 14:00:49;;;;;;;14.50;7.07;;;;;;;;;;4990127;23;20042;-90
2023/05/24 14:03:14;;;;;;;15.05;6.88;;;;;;;;;;5011736;28;20038;-90
2023/05/24 14:05:40;;;;;;;14.38;7.15;;;;;;;;;;4995404;28;20023;-87
2023/05/24 14:08:06;;;;;;;11.68;6.40;;;;;;;;;;4993798;28;20034;-87
2023/05/24 14:10:35;;;;;;;12.48;6.75;;;;;;;;;;4993255;28;20053;-88
2023/05/24 14:13:05;;;;;;;14.23;6.95;;;;;;;;;;4993579;28;20043;-89
2023/05/24 14:15:30;;;;;;;13.50;7.13;;;;;;;;;;4986378;28;20405;-88
2023/05/24 14:17:57;;;;;;;12.30;7.63;;;;;;;;;;4997004;28;20033;-89
2023/05/24 14:20:22;;;;;;;13.00;7.38;;;;;;;;;;4987300;28;20039;-88
2023/05/24 14:22:48;;;;;;;13.65;6.65;;;;;;;;;;4996875;28;20056;-88
2023/05/24 14:25:13;;;;;;;11.85;6.93;;;;;;;;;;4987698;28;20508;-88
2023/05/24 14:27:40;;;;;;;14.73;6.88;;;;;;;;;;4984890;28;20039;-88
2023/05/24 14:30:06;;;;;;;15.00;6.35;;;;;;;;;;4989305;28;20046;-88